Time;durP1;ratioP1;P1;durP2;ratioP2;P2;SDS_P1;SDS_P2;PMS_P1;PMS_P2;Temp;Humidity;BMP_temperature;BMP_pressure;BME280_temperature;BME280_humidity;BME280_pressure;Samples;Min_cycle;Max_cycle;Signal;HPM_P1;HPM_P2
2021/04/17 00:01:16;;;;;;;6.97;4.68;;;8.40;99.90;;;;;;5079922;28;20107;-67
2021/04/17 00:03:43;;;;;;;8.95;3.97;;;8.40;99.90;;;;;;5083503;28;20055;-67
2021/04/17 00:06:09;;;;;;;11.32;3.85;;;8.30;99.90;;;;;;5085511;28;20125;-67
2021/04/17 00:08:35;;;;;;;7.10;4.18;;;8.30;99.90;;;;;;5076410;28;20462;-67
2021/04/17 00:11:01;;;;;;;8.77;4.30;;;8.30;99.90;;;;;;5078355;28;20035;-67
2021/04/17 00:13:27;;;;;;;6.03;3.83;;;8.20;99.90;;;;;;5078304;28;20118;-67
2021/04/17 00:15:53;;;;;;;9.10;4.95;;;8.10;99.90;;;;;;5073788;28;20110;-67
2021/04/17 00:18:19;;;;;;;7.93;4.80;;;8.10;99.90;;;;;;5079419;28;20024;-66
2021/04/17 00:20:45;;;;;;;6.72;4.38;;;8.10;99.90;;;;;;5075731;28;20039;-67
2021/04/17 00:23:11;;;;;;;9.70;4.68;;;8.20;99.90;;;;;;5075313;28;20028;-67
2021/04/17 00:25:36;;;;;;;8.88;4.30;;;8.20;99.90;;;;;;5077389;28;20060;-67
2021/04/17 00:28:03;;;;;;;7.30;4.65;;;8.20;99.90;;;;;;5068730;28;20392;-67
2021/04/17 00:30:28;;;;;;;6.15;4.30;;;8.10;99.90;;;;;;5080138;28;20024;-67
2021/04/17 00:32:54;;;;;;;8.50;4.60;;;8.10;99.90;;;;;;5078351;28;20028;-67
2021/04/17 00:35:19;;;;;;;9.40;4.20;;;8.00;99.90;;;;;;5077242;28;20118;-67
2021/04/17 00:37:45;;;;;;;6.68;4.43;;;7.90;99.90;;;;;;5078973;28;20036;-67
2021/04/17 00:40:11;;;;;;;10.27;5.03;;;7.90;99.90;;;;;;5074220;28;20020;-67
2021/04/17 00:42:37;;;;;;;6.68;4.68;;;7.90;99.90;;;;;;5081921;28;20362;-66
2021/04/17 00:45:05;;;;;;;9.27;4.57;;;7.90;99.90;;;;;;5065973;28;20031;-67
2021/04/17 00:47:31;;;;;;;7.90;4.57;;;7.90;99.90;;;;;;5073458;28;20021;-67
2021/04/17 00:49:56;;;;;;;11.13;4.60;;;7.90;99.90;;;;;;5080787;28;20084;-66
2021/04/17 00:52:22;;;;;;;9.90;5.00;;;7.80;99.90;;;;;;5074598;28;20418;-67
2021/04/17 00:54:48;;;;;;;5.95;4.70;;;7.80;99.90;;;;;;5073207;28;20035;-67
2021/04/17 00:57:13;;;;;;;11.70;5.70;;;7.80;99.90;;;;;;5071289;28;20378;-67
2021/04/17 00:59:39;;;;;;;8.65;4.80;;;7.70;99.90;;;;;;5069846;28;20024;-67
2021/04/17 01:02:05;;;;;;;12.55;5.15;;;7.70;99.90;;;;;;5072366;28;20031;-67
2021/04/17 01:04:42;;;;;;;8.45;5.00;;;7.70;99.90;;;;;;5071058;28;20028;-67
2021/04/17 01:07:19;;;;;;;6.47;4.20;;;7.60;99.90;;;;;;5066320;28;20064;-67
2021/04/17 01:10:07;;;;;;;6.53;4.60;;;7.60;99.90;;;;;;5071182;28;20020;-67
2021/04/17 01:12:41;;;;;;;9.20;5.20;;;7.60;99.90;;;;;;5066141;28;20565;-67
2021/04/17 01:15:09;;;;;;;6.78;4.53;;;7.50;99.90;;;;;;5067311;28;20477;-67
2021/04/17 01:17:37;;;;;;;13.20;5.85;;;7.60;99.90;;;;;;5065410;28;20025;-67
2021/04/17 01:20:16;;;;;;;8.60;5.20;;;7.60;99.90;;;;;;5064927;28;20737;-67
2021/04/17 01:22:48;;;;;;;12.05;5.43;;;7.60;99.90;;;;;;5067103;28;20397;-67
2021/04/17 01:25:20;;;;;;;7.57;4.68;;;7.50;99.90;;;;;;5072110;28;20423;-67
2021/04/17 01:27:45;;;;;;;8.73;5.50;;;7.50;99.90;;;;;;5069987;28;20381;-67
2021/04/17 01:30:15;;;;;;;14.00;5.50;;;7.50;99.90;;;;;;5071289;28;20021;-67
2021/04/17 01:32:41;;;;;;;7.85;5.43;;;7.40;99.90;;;;;;5063142;28;20504;-67
2021/04/17 01:35:11;;;;;;;8.32;5.80;;;7.50;99.90;;;;;;5067149;28;20017;-67
2021/04/17 01:37:52;;;;;;;9.90;5.85;;;7.50;99.90;;;;;;5065206;28;20052;-67
2021/04/17 01:40:22;;;;;;;11.98;6.10;;;7.40;99.90;;;;;;5068521;28;20048;-67
2021/04/17 01:42:50;;;;;;;6.80;4.93;;;7.50;99.90;;;;;;5062110;28;20130;-67
2021/04/17 01:45:18;;;;;;;9.55;5.53;;;7.50;99.90;;;;;;5069164;28;20579;-66
2021/04/17 01:47:45;;;;;;;9.23;5.60;;;7.40;99.90;;;;;;5065031;28;20540;-67
2021/04/17 01:50:13;;;;;;;11.95;5.82;;;7.40;99.90;;;;;;5069109;28;20043;-67
2021/04/17 01:52:41;;;;;;;9.85;5.57;;;7.50;99.90;;;;;;5075501;28;20082;-67
2021/04/17 01:55:08;;;;;;;9.70;5.75;;;7.50;99.90;;;;;;5068443;28;20115;-67
2021/04/17 01:57:35;;;;;;;9.73;5.20;;;7.50;99.90;;;;;;5064150;28;20032;-67
2021/04/17 02:00:01;;;;;;;10.13;5.43;;;7.50;99.90;;;;;;5066668;28;20021;-67
2021/04/17 02:02:27;;;;;;;9.05;6.05;;;7.50;99.90;;;;;;5070975;28;20025;-67
2021/04/17 02:04:53;;;;;;;12.90;6.55;;;7.40;99.90;;;;;;5062846;28;20059;-67
2021/04/17 02:07:19;;;;;;;10.40;6.35;;;7.40;99.90;;;;;;5062952;28;20025;-67
2021/04/17 02:09:45;;;;;;;10.07;6.47;;;7.20;99.90;;;;;;5062225;28;20025;-67
2021/04/17 02:12:11;;;;;;;13.98;5.57;;;7.20;99.90;;;;;;5062774;28;20024;-67
2021/04/17 02:14:36;;;;;;;10.95;5.63;;;7.10;99.90;;;;;;5068904;28;20025;-67
2021/04/17 02:17:02;;;;;;;10.25;5.97;;;7.00;99.90;;;;;;5073227;28;20055;-67
2021/04/17 02:19:49;;;;;;;14.55;5.90;;;7.00;99.90;;;;;;5062994;28;20064;-67
2021/04/17 02:22:16;;;;;;;10.00;6.35;;;7.00;99.90;;;;;;5062713;28;20036;-66
2021/04/17 02:24:42;;;;;;;14.43;6.38;;;7.00;99.90;;;;;;5068475;28;20036;-66
2021/04/17 02:27:08;;;;;;;16.33;6.55;;;6.90;99.90;;;;;;5072942;28;20032;-66
2021/04/17 02:29:35;;;;;;;11.85;6.18;;;7.00;99.90;;;;;;5070246;28;20028;-66
2021/04/17 02:32:01;;;;;;;10.85;6.63;;;7.00;99.90;;;;;;5070325;28;20040;-66
2021/04/17 02:34:28;;;;;;;14.95;6.30;;;6.90;99.90;;;;;;5070182;28;20031;-66
2021/04/17 02:36:54;;;;;;;11.48;6.80;;;7.00;99.90;;;;;;5070384;28;20025;-66
2021/04/17 02:39:20;;;;;;;9.88;6.00;;;6.90;99.90;;;;;;5071558;28;20570;-66
2021/04/17 02:41:46;;;;;;;10.98;6.20;;;6.90;99.90;;;;;;5068587;28;20029;-66
2021/04/17 02:44:11;;;;;;;8.88;6.22;;;6.80;99.90;;;;;;5067083;28;20078;-66
2021/04/17 02:46:37;;;;;;;11.23;6.28;;;6.80;99.90;;;;;;5066615;28;20026;-66
2021/04/17 02:49:03;;;;;;;14.98;7.38;;;6.80;99.90;;;;;;5071299;28;20028;-66
2021/04/17 02:51:29;;;;;;;10.30;6.60;;;6.80;99.90;;;;;;5065047;28;20059;-66
2021/04/17 02:53:54;;;;;;;14.77;7.15;;;6.90;99.90;;;;;;5075453;28;20039;-66
2021/04/17 02:56:20;;;;;;;11.43;6.45;;;6.80;99.90;;;;;;5071971;28;20139;-66
2021/04/17 02:58:46;;;;;;;11.73;6.30;;;6.80;99.90;;;;;;5078132;28;20024;-66
2021/04/17 03:01:12;;;;;;;13.85;6.32;;;6.70;99.90;;;;;;5068593;28;20401;-66
2021/04/17 03:03:37;;;;;;;11.45;6.40;;;6.60;99.90;;;;;;5075887;28;20028;-66
2021/04/17 03:06:03;;;;;;;10.98;6.63;;;6.50;99.90;;;;;;5074518;28;20385;-66
2021/04/17 03:08:29;;;;;;;12.07;6.43;;;6.50;99.90;;;;;;5079208;28;20442;-66
2021/04/17 03:10:55;;;;;;;9.05;6.00;;;6.50;99.90;;;;;;5073518;28;20050;-66
2021/04/17 03:13:20;;;;;;;11.52;6.90;;;6.40;99.90;;;;;;5072833;28;20040;-66
2021/04/17 03:15:46;;;;;;;15.20;7.20;;;6.30;99.90;;;;;;5071950;28;20151;-66
2021/04/17 03:18:12;;;;;;;12.35;6.30;;;6.30;99.90;;;;;;5068401;28;20043;-66
2021/04/17 03:20:38;;;;;;;13.48;6.70;;;6.20;99.90;;;;;;5072134;28;20021;-66
2021/04/17 03:23:04;;;;;;;11.60;6.68;;;6.20;99.90;;;;;;5064964;28;20510;-66
2021/04/17 03:25:30;;;;;;;11.25;6.55;;;6.20;99.90;;;;;;5071992;28;20139;-66
2021/04/17 03:27:56;;;;;;;12.45;6.72;;;6.10;99.90;;;;;;5075233;28;20385;-66
2021/04/17 03:30:27;;;;;;;16.95;7.47;;;6.10;99.90;;;;;;5070091;28;20042;-66
2021/04/17 03:32:55;;;;;;;17.50;7.00;;;6.10;99.90;;;;;;5071523;28;20035;-66
2021/04/17 03:35:20;;;;;;;15.00;6.85;;;6.10;99.90;;;;;;5072744;28;20055;-66
2021/04/17 03:37:46;;;;;;;11.32;7.05;;;6.10;99.90;;;;;;5064323;28;20109;-67
2021/04/17 03:40:13;;;;;;;13.30;6.82;;;6.10;99.90;;;;;;5072527;28;20083;-66
2021/04/17 03:42:39;;;;;;;16.92;7.05;;;6.10;99.90;;;;;;5060258;28;20043;-66
2021/04/17 03:45:06;;;;;;;10.50;7.00;;;6.10;99.90;;;;;;5072046;28;20020;-66
2021/04/17 03:47:32;;;;;;;16.10;7.60;;;6.10;99.90;;;;;;5075831;28;20028;-66
2021/04/17 03:49:57;;;;;;;13.77;8.00;;;6.00;99.90;;;;;;5071661;28;20147;-66
2021/04/17 03:52:23;;;;;;;14.40;7.82;;;6.10;99.90;;;;;;5065795;28;20390;-66
2021/04/17 03:54:49;;;;;;;18.77;8.20;;;6.10;99.90;;;;;;5070708;28;20115;-66
2021/04/17 03:57:14;;;;;;;13.32;7.00;;;6.00;99.90;;;;;;5074199;28;20094;-66
2021/04/17 03:59:40;;;;;;;13.98;7.53;;;6.00;99.90;;;;;;5073703;28;20020;-66
2021/04/17 04:02:06;;;;;;;13.43;8.10;;;6.00;99.90;;;;;;5063783;28;20440;-66
2021/04/17 04:04:31;;;;;;;11.38;7.35;;;6.00;99.90;;;;;;5070589;28;20035;-66
2021/04/17 04:06:57;;;;;;;15.25;8.48;;;6.00;99.90;;;;;;5070963;28;20029;-66
2021/04/17 04:09:23;;;;;;;13.27;7.32;;;6.00;99.90;;;;;;5064141;28;20034;-66
2021/04/17 04:11:48;;;;;;;14.13;7.15;;;6.00;99.90;;;;;;5070233;28;20036;-66
2021/04/17 04:14:14;;;;;;;13.63;7.47;;;5.90;99.90;;;;;;5069288;28;20070;-66
2021/04/17 04:16:40;;;;;;;14.27;7.57;;;5.90;99.90;;;;;;5068768;28;20052;-66
2021/04/17 04:19:05;;;;;;;15.13;7.85;;;5.90;99.90;;;;;;5078551;28;20028;-66
2021/04/17 04:21:31;;;;;;;16.58;7.88;;;5.80;99.90;;;;;;5074423;28;20381;-66
2021/04/17 04:23:57;;;;;;;16.42;7.82;;;5.80;99.90;;;;;;5073330;28;20076;-66
2021/04/17 04:26:22;;;;;;;14.52;7.82;;;5.80;99.90;;;;;;5080256;28;20028;-66
2021/04/17 04:28:48;;;;;;;14.77;8.65;;;5.70;99.90;;;;;;5064395;28;20300;-66
2021/04/17 04:31:14;;;;;;;11.23;7.05;;;5.70;99.90;;;;;;5062231;28;20425;-66
2021/04/17 04:33:39;;;;;;;14.70;7.93;;;5.70;99.90;;;;;;5068212;28;20036;-66
2021/04/17 04:36:05;;;;;;;18.40;7.97;;;5.70;99.90;;;;;;5063157;28;20077;-66
2021/04/17 04:38:31;;;;;;;14.45;7.97;;;5.70;99.90;;;;;;5074910;28;20028;-66
2021/04/17 04:40:58;;;;;;;16.83;8.50;;;5.70;99.90;;;;;;5072380;28;20020;-66
2021/04/17 04:43:24;;;;;;;14.07;7.90;;;5.80;99.90;;;;;;5074980;28;20366;-66
2021/04/17 04:45:50;;;;;;;12.25;7.43;;;5.70;99.90;;;;;;5066829;28;20030;-66
2021/04/17 04:48:15;;;;;;;16.02;8.02;;;5.70;99.90;;;;;;5065387;28;20473;-66
2021/04/17 04:50:41;;;;;;;13.90;8.05;;;5.70;99.90;;;;;;5067396;28;20020;-66
2021/04/17 04:53:07;;;;;;;19.50;9.00;;;5.70;99.90;;;;;;5063955;28;20036;-66
2021/04/17 04:55:33;;;;;;;17.33;9.00;;;5.70;99.90;;;;;;5063407;28;20033;-66
2021/04/17 04:57:59;;;;;;;15.82;8.27;;;5.80;99.90;;;;;;5070612;28;20075;-66
2021/04/17 05:00:25;;;;;;;15.15;7.60;;;5.80;99.90;;;;;;5070132;28;20020;-66
2021/04/17 05:02:51;;;;;;;12.20;6.68;;;5.80;99.90;;;;;;5064542;28;20463;-66
2021/04/17 05:05:17;;;;;;;16.13;8.70;;;5.80;99.90;;;;;;5072869;28;20146;-66
2021/04/17 05:07:43;;;;;;;16.40;8.02;;;5.80;99.90;;;;;;5061446;28;20103;-66
2021/04/17 05:10:09;;;;;;;21.50;8.32;;;5.80;99.90;;;;;;5071535;28;20103;-66
2021/04/17 05:12:35;;;;;;;18.23;8.20;;;5.80;99.90;;;;;;5065839;28;20189;-66
2021/04/17 05:15:01;;;;;;;20.75;8.73;;;5.80;99.90;;;;;;5064373;28;20564;-66
2021/04/17 05:17:27;;;;;;;14.18;7.55;;;5.80;99.90;;;;;;5068062;28;20028;-66
2021/04/17 05:19:53;;;;;;;14.68;8.02;;;5.70;99.90;;;;;;5061611;28;20397;-66
2021/04/17 05:22:19;;;;;;;16.75;8.13;;;5.60;99.90;;;;;;5066535;28;20070;-66
2021/04/17 05:24:45;;;;;;;14.20;7.80;;;5.60;99.90;;;;;;5069996;28;20020;-66
2021/04/17 05:27:11;;;;;;;15.23;7.07;;;5.60;99.90;;;;;;5071463;28;20033;-66
2021/04/17 05:29:36;;;;;;;18.48;8.18;;;5.60;99.90;;;;;;5066783;28;20021;-66
2021/04/17 05:32:03;;;;;;;15.32;7.57;;;5.60;99.90;;;;;;5069384;28;20047;-66
2021/04/17 05:34:28;;;;;;;13.65;8.02;;;5.60;99.90;;;;;;5068924;28;20025;-66
2021/04/17 05:36:54;;;;;;;17.17;8.25;;;5.60;99.90;;;;;;5071324;28;20074;-66
2021/04/17 05:39:20;;;;;;;16.40;8.52;;;5.60;99.90;;;;;;5071433;28;20059;-67
2021/04/17 05:41:45;;;;;;;13.15;7.57;;;5.70;99.90;;;;;;5068005;28;20051;-66
2021/04/17 05:44:11;;;;;;;13.75;8.18;;;5.70;99.90;;;;;;5068428;28;20032;-66
2021/04/17 05:46:41;;;;;;;14.02;7.32;;;5.70;99.90;;;;;;5064418;28;20113;-66
2021/04/17 05:49:07;;;;;;;14.18;8.50;;;5.70;99.90;;;;;;5067584;28;20056;-66
2021/04/17 05:51:34;;;;;;;17.70;7.10;;;5.70;99.90;;;;;;5067055;28;20426;-66
2021/04/17 05:54:00;;;;;;;16.00;8.23;;;5.70;99.90;;;;;;5064493;28;20040;-66
2021/04/17 05:56:26;;;;;;;15.75;8.25;;;5.70;99.90;;;;;;5069187;28;20036;-66
2021/04/17 05:58:51;;;;;;;16.83;8.18;;;5.70;99.90;;;;;;5069104;28;20021;-66
2021/04/17 06:01:17;;;;;;;16.80;7.47;;;5.70;99.90;;;;;;5061204;28;20024;-66
2021/04/17 06:03:43;;;;;;;17.02;8.00;;;5.70;99.90;;;;;;5069426;28;20093;-66
2021/04/17 06:06:08;;;;;;;23.30;7.32;;;5.80;99.90;;;;;;5071386;28;20032;-66
2021/04/17 06:08:34;;;;;;;16.35;7.45;;;5.80;99.90;;;;;;5067029;28;20032;-66
2021/04/17 06:10:59;;;;;;;14.90;7.57;;;5.80;99.90;;;;;;5061345;28;20539;-66
2021/04/17 06:13:25;;;;;;;15.18;7.30;;;5.80;99.90;;;;;;5069831;28;20431;-66
2021/04/17 06:15:51;;;;;;;13.93;7.80;;;5.90;99.90;;;;;;5061866;28;20656;-66
2021/04/17 06:18:16;;;;;;;11.35;7.15;;;6.00;99.90;;;;;;5068502;28;20489;-66
2021/04/17 06:20:42;;;;;;;14.55;6.97;;;6.00;99.90;;;;;;5067618;28;20099;-66
2021/04/17 06:23:07;;;;;;;14.57;7.63;;;6.10;99.90;;;;;;5065452;28;20040;-67
2021/04/17 06:25:33;;;;;;;15.65;8.10;;;6.20;99.90;;;;;;5066618;28;20035;-66
2021/04/17 06:27:59;;;;;;;15.40;7.95;;;6.30;99.90;;;;;;5072947;28;20071;-66
2021/04/17 06:30:24;;;;;;;15.40;7.50;;;6.30;99.90;;;;;;5073509;28;20047;-66
2021/04/17 06:32:50;;;;;;;14.63;7.50;;;6.40;99.90;;;;;;5067586;28;20040;-66
2021/04/17 06:35:16;;;;;;;17.60;7.30;;;6.40;99.90;;;;;;5070034;28;20385;-66
2021/04/17 06:37:42;;;;;;;13.80;6.88;;;6.50;99.90;;;;;;5070620;28;20384;-66
2021/04/17 06:40:08;;;;;;;13.88;6.95;;;6.60;99.90;;;;;;5072071;28;20028;-67
2021/04/17 06:42:36;;;;;;;15.43;8.52;;;6.60;99.90;;;;;;5079217;28;20024;-67
2021/04/17 06:45:03;;;;;;;11.40;6.90;;;6.60;99.90;;;;;;5072883;28;20033;-66
2021/04/17 06:47:30;;;;;;;16.45;7.07;;;6.50;99.90;;;;;;5076217;28;20539;-66
2021/04/17 06:49:57;;;;;;;16.35;6.78;;;6.60;99.90;;;;;;5072145;28;21870;-66
2021/04/17 06:52:25;;;;;;;12.18;5.50;;;6.70;99.90;;;;;;5074669;28;20110;-67
2021/04/17 06:54:51;;;;;;;17.85;7.03;;;6.70;99.90;;;;;;5073019;28;20384;-67
2021/04/17 06:57:18;;;;;;;14.20;6.40;;;6.80;99.90;;;;;;5068445;28;20025;-67
2021/04/17 06:59:44;;;;;;;12.52;6.43;;;7.00;99.90;;;;;;5074041;28;20045;-67
2021/04/17 07:02:16;;;;;;;11.05;6.45;;;7.00;99.90;;;;;;5070932;28;20118;-67
2021/04/17 07:04:42;;;;;;;12.57;6.60;;;7.00;99.90;;;;;;5068918;28;20020;-67
2021/04/17 07:07:09;;;;;;;14.75;6.70;;;7.20;99.90;;;;;;5074084;28;20187;-67
2021/04/17 07:09:35;;;;;;;11.50;6.03;;;7.30;99.90;;;;;;5073204;28;20021;-67
2021/04/17 07:12:00;;;;;;;18.70;5.63;;;7.40;99.90;;;;;;5069914;28;20029;-66
2021/04/17 07:14:26;;;;;;;11.43;6.55;;;7.30;99.90;;;;;;5065854;28;20432;-66
2021/04/17 07:17:02;;;;;;;12.80;6.32;;;7.50;99.90;;;;;;5073106;28;20086;-67
2021/04/17 07:19:45;;;;;;;14.07;6.05;;;7.60;99.90;;;;;;5067578;28;20024;-67
2021/04/17 07:22:40;;;;;;;11.23;5.43;;;7.80;99.90;;;;;;5066298;28;20021;-67
2021/04/17 07:25:06;;;;;;;13.95;5.75;;;7.90;99.90;;;;;;5071932;28;20061;-67
2021/04/17 07:27:36;;;;;;;11.57;4.72;;;8.00;99.90;;;;;;5073066;28;20558;-67
2021/04/17 07:30:14;;;;;;;10.10;5.25;;;8.10;99.90;;;;;;5070845;28;20471;-66
2021/04/17 07:32:40;;;;;;;10.18;5.22;;;8.30;99.90;;;;;;5069263;28;20035;-66
2021/04/17 07:35:16;;;;;;;12.15;5.95;;;8.40;99.90;;;;;;5070384;28;20060;-70
2021/04/17 07:37:45;;;;;;;11.07;5.18;;;8.50;99.90;;;;;;5069168;28;20025;-67
2021/04/17 07:40:16;;;;;;;8.60;5.50;;;8.60;99.90;;;;;;5073712;28;20017;-67
2021/04/17 07:42:50;;;;;;;12.68;5.78;;;8.80;99.90;;;;;;5068413;28;20040;-67
2021/04/17 07:45:37;;;;;;;14.15;5.60;;;8.90;99.90;;;;;;5067944;28;20020;-67
2021/04/17 07:48:27;;;;;;;9.77;5.20;;;9.00;99.90;;;;;;5074110;28;20028;-67
2021/04/17 07:50:54;;;;;;;9.43;4.88;;;9.20;99.90;;;;;;5066027;28;20020;-68
2021/04/17 07:53:35;;;;;;;12.77;5.43;;;9.40;99.90;;;;;;5069066;28;20078;-67
2021/04/17 07:56:23;;;;;;;15.63;5.55;;;9.50;99.90;;;;;;5061178;28;20076;-67
2021/04/17 07:58:50;;;;;;;11.20;5.10;;;9.50;99.90;;;;;;5070444;28;20021;-67
2021/04/17 08:01:17;;;;;;;10.15;5.15;;;9.80;99.90;;;;;;5071021;28;20032;-66
2021/04/17 08:03:45;;;;;;;9.25;4.57;;;9.90;99.90;;;;;;5065170;28;20020;-67
2021/04/17 08:06:11;;;;;;;7.88;4.70;;;10.10;99.90;;;;;;5069497;28;20023;-67
2021/04/17 08:08:38;;;;;;;10.00;4.60;;;10.20;99.90;;;;;;5070518;28;20028;-66
2021/04/17 08:11:04;;;;;;;9.73;4.40;;;10.20;99.90;;;;;;5074247;28;20024;-67
2021/04/17 08:13:32;;;;;;;8.88;4.13;;;10.30;99.90;;;;;;5071650;28;20401;-67
2021/04/17 08:15:58;;;;;;;7.97;3.95;;;10.50;99.90;;;;;;5066501;28;20461;-67
2021/04/17 08:18:24;;;;;;;9.27;4.35;;;10.60;99.90;;;;;;5066425;28;20039;-66
2021/04/17 08:20:49;;;;;;;12.77;5.45;;;10.60;99.90;;;;;;5069157;28;20025;-66
2021/04/17 08:23:19;;;;;;;7.68;4.38;;;10.70;99.90;;;;;;5072160;28;20050;-66
2021/04/17 08:25:45;;;;;;;9.15;4.25;;;10.90;99.90;;;;;;5061857;28;20028;-66
2021/04/17 08:28:18;;;;;;;10.15;4.38;;;11.10;99.90;;;;;;5074824;28;20384;-67
2021/04/17 08:30:44;;;;;;;8.98;4.35;;;11.20;99.90;;;;;;5070265;28;20023;-66
2021/04/17 08:33:20;;;;;;;10.00;4.97;;;11.30;99.90;;;;;;5070613;28;20048;-67
2021/04/17 08:35:46;;;;;;;10.07;5.20;;;11.30;99.90;;;;;;5066503;28;20051;-66
2021/04/17 08:38:14;;;;;;;7.22;3.70;;;11.50;99.90;;;;;;5068287;28;20108;-67
2021/04/17 08:40:45;;;;;;;6.68;3.35;;;11.60;99.90;;;;;;5075303;28;20119;-67
2021/04/17 08:43:14;;;;;;;6.43;3.80;;;11.60;99.90;;;;;;5069322;28;20032;-68
2021/04/17 08:46:15;;;;;;;10.45;4.53;;;11.40;99.90;;;;;;5064873;28;20064;-67
2021/04/17 08:48:45;;;;;;;8.93;3.85;;;11.60;99.90;;;;;;5064068;28;20041;-70
2021/04/17 08:51:25;;;;;;;8.95;3.92;;;11.50;99.90;;;;;;5060957;28;20407;-67
2021/04/17 08:54:10;;;;;;;9.60;3.88;;;11.60;99.90;;;;;;5064803;28;20040;-68
2021/04/17 08:56:49;;;;;;;7.15;4.13;;;11.70;99.90;;;;;;5071275;28;20824;-68
2021/04/17 08:59:24;;;;;;;11.57;4.20;;;11.90;99.90;;;;;;5068213;28;20029;-67
2021/04/17 09:01:51;;;;;;;8.25;4.32;;;12.10;99.90;;;;;;5069753;28;20107;-68
2021/04/17 09:04:17;;;;;;;7.78;3.50;;;12.30;99.90;;;;;;5070930;28;20021;-68
2021/04/17 09:06:45;;;;;;;6.80;3.92;;;12.20;99.90;;;;;;5067934;28;20020;-68
2021/04/17 09:09:19;;;;;;;7.68;3.33;;;12.40;99.90;;;;;;5065738;28;20035;-68
2021/04/17 09:11:47;;;;;;;6.78;2.90;;;12.50;99.90;;;;;;5066054;28;20031;-67
2021/04/17 09:14:33;;;;;;;8.07;3.60;;;12.70;99.90;;;;;;5068424;28;20607;-68
2021/04/17 09:16:58;;;;;;;6.60;3.08;;;12.30;99.00;;;;;;5067851;28;20024;-69
2021/04/17 09:19:39;;;;;;;4.40;2.70;;;12.60;99.00;;;;;;5064348;28;20032;-68
2021/04/17 09:22:23;;;;;;;6.43;2.80;;;12.70;98.80;;;;;;5066365;28;20055;-68
2021/04/17 09:24:54;;;;;;;5.30;2.70;;;12.80;97.30;;;;;;5073571;28;20028;-68
2021/04/17 09:27:27;;;;;;;6.22;3.33;;;13.00;96.60;;;;;;5060856;28;20041;-68
2021/04/17 09:29:57;;;;;;;7.43;2.78;;;13.00;95.10;;;;;;5047580;28;20021;-69
2021/04/17 09:32:31;;;;;;;6.18;2.80;;;13.10;94.30;;;;;;5069984;28;20068;-68
2021/04/17 09:34:56;;;;;;;6.15;2.58;;;12.90;94.50;;;;;;5059253;28;20025;-68
2021/04/17 09:37:26;;;;;;;4.10;2.75;;;13.20;97.00;;;;;;5065216;28;20036;-68
2021/04/17 09:39:51;;;;;;;6.85;3.22;;;13.30;95.60;;;;;;5066589;28;20058;-68
2021/04/17 09:42:32;;;;;;;7.15;3.03;;;13.00;94.80;;;;;;5065980;28;20028;-68
2021/04/17 09:44:59;;;;;;;5.80;3.35;;;13.30;96.50;;;;;;5063322;28;20052;-67
2021/04/17 09:47:25;;;;;;;6.35;3.60;;;13.60;97.30;;;;;;5065728;28;20036;-67
2021/04/17 09:49:53;;;;;;;4.70;3.03;;;13.60;95.40;;;;;;5070671;28;20043;-68
2021/04/17 09:52:22;;;;;;;4.28;2.47;;;13.60;94.50;;;;;;5066900;28;20032;-67
2021/04/17 09:54:58;;;;;;;4.38;2.72;;;13.70;94.00;;;;;;5068040;28;20053;-67
2021/04/17 09:57:25;;;;;;;5.05;3.40;;;13.90;93.70;;;;;;5066357;28;20557;-67
2021/04/17 09:59:52;;;;;;;4.28;2.80;;;14.20;94.60;;;;;;5066221;28;20024;-67
2021/04/17 10:02:18;;;;;;;4.15;2.90;;;14.10;92.90;;;;;;5069831;28;20024;-67
2021/04/17 10:04:49;;;;;;;5.03;2.95;;;14.10;93.20;;;;;;5057491;28;22707;-67
2021/04/17 10:07:15;;;;;;;7.18;2.75;;;14.30;94.00;;;;;;5068019;28;20029;-68
2021/04/17 10:09:41;;;;;;;4.38;3.20;;;14.40;95.30;;;;;;5068820;28;20496;-67
2021/04/17 10:12:13;;;;;;;4.43;3.15;;;14.00;91.70;;;;;;5064593;28;20029;-68
2021/04/17 10:14:39;;;;;;;6.53;3.17;;;13.90;92.50;;;;;;5070630;28;20024;-68
2021/04/17 10:17:04;;;;;;;4.35;3.08;;;14.10;91.90;;;;;;5075961;28;20081;-68
2021/04/17 10:19:30;;;;;;;5.28;3.25;;;14.30;93.50;;;;;;5069425;28;20095;-68
2021/04/17 10:22:01;;;;;;;5.43;3.47;;;14.50;91.90;;;;;;5066768;28;20027;-68
2021/04/17 10:24:28;;;;;;;4.20;3.10;;;14.40;92.50;;;;;;5067236;28;20020;-67
2021/04/17 10:26:56;;;;;;;5.60;3.40;;;14.40;92.00;;;;;;5066745;28;20365;-68
2021/04/17 10:29:35;;;;;;;5.00;2.75;;;14.20;91.00;;;;;;5066420;28;20384;-68
2021/04/17 10:32:13;;;;;;;4.20;2.92;;;14.40;91.10;;;;;;5067130;28;20020;-68
2021/04/17 10:34:40;;;;;;;5.93;3.08;;;14.20;91.30;;;;;;5064109;28;20040;-67
2021/04/17 10:37:13;;;;;;;4.72;2.42;;;14.20;91.20;;;;;;5070523;28;20017;-67
2021/04/17 10:39:57;;;;;;;3.20;2.78;;;14.00;90.50;;;;;;5061535;28;20024;-69
2021/04/17 10:42:23;;;;;;;5.75;3.08;;;13.80;90.90;;;;;;5069031;28;20047;-69
2021/04/17 10:44:55;;;;;;;4.40;2.85;;;13.80;90.20;;;;;;5072867;28;20748;-68
2021/04/17 10:47:22;;;;;;;8.10;2.83;;;14.30;90.20;;;;;;5069703;28;20476;-68
2021/04/17 10:49:48;;;;;;;3.40;2.30;;;14.60;90.40;;;;;;5068433;28;20085;-68
2021/04/17 10:52:35;;;;;;;8.70;3.00;;;14.90;90.50;;;;;;5056502;28;20330;-68
2021/04/17 10:55:01;;;;;;;4.07;2.83;;;15.20;92.20;;;;;;5066533;28;20024;-69
2021/04/17 10:57:41;;;;;;;6.20;3.10;;;15.30;90.10;;;;;;5070605;28;20485;-68
2021/04/17 11:00:09;;;;;;;5.40;2.90;;;15.20;91.50;;;;;;5066179;28;20040;-68
2021/04/17 11:02:35;;;;;;;3.55;2.90;;;15.40;90.60;;;;;;5064795;28;20028;-68
2021/04/17 11:05:04;;;;;;;5.22;2.83;;;15.40;90.30;;;;;;5070183;28;20021;-69
2021/04/17 11:07:38;;;;;;;5.05;2.80;;;15.50;89.50;;;;;;5063335;28;20020;-69
2021/04/17 11:10:09;;;;;;;3.75;3.00;;;15.60;88.10;;;;;;5058022;28;20131;-69
2021/04/17 11:12:37;;;;;;;4.15;2.97;;;15.70;87.50;;;;;;5072298;28;20040;-69
2021/04/17 11:15:23;;;;;;;5.10;3.08;;;15.80;90.60;;;;;;5069691;28;20031;-69
2021/04/17 11:18:15;;;;;;;4.32;2.88;;;15.60;88.90;;;;;;5065075;28;20029;-69
2021/04/17 11:20:51;;;;;;;4.22;3.00;;;15.70;85.80;;;;;;5055094;28;20095;-69
2021/04/17 11:23:45;;;;;;;4.78;3.17;;;15.70;83.10;;;;;;5067919;28;20366;-69
2021/04/17 11:26:20;;;;;;;4.10;3.17;;;15.40;82.80;;;;;;5072806;28;20044;-69
2021/04/17 11:28:50;;;;;;;5.10;3.10;;;15.50;82.20;;;;;;5069847;28;20017;-69
2021/04/17 11:31:19;;;;;;;4.30;2.97;;;15.20;81.80;;;;;;5065665;28;20110;-69
2021/04/17 11:33:47;;;;;;;3.83;2.45;;;15.00;80.00;;;;;;5072460;28;20097;-69
2021/04/17 11:36:12;;;;;;;7.00;2.25;;;15.30;82.40;;;;;;5073306;28;20452;-69
2021/04/17 11:38:38;;;;;;;3.72;2.30;;;15.40;79.80;;;;;;5074144;28;20060;-69
2021/04/17 11:41:04;;;;;;;3.97;2.90;;;15.50;84.70;;;;;;5067757;28;20077;-69
2021/04/17 11:43:29;;;;;;;3.20;2.70;;;15.50;84.60;;;;;;5069293;28;20081;-69
2021/04/17 11:45:55;;;;;;;5.03;3.20;;;15.60;85.60;;;;;;5071966;28;20103;-69
2021/04/17 11:48:22;;;;;;;6.30;3.88;;;15.60;82.30;;;;;;5074379;28;20021;-69
2021/04/17 11:50:47;;;;;;;4.55;2.88;;;15.90;83.90;;;;;;5064729;28;20029;-68
2021/04/17 11:53:16;;;;;;;3.78;2.97;;;16.00;87.90;;;;;;5073772;28;20047;-68
2021/04/17 11:55:42;;;;;;;6.22;3.05;;;16.20;84.40;;;;;;5070389;28;20021;-69
2021/04/17 11:58:07;;;;;;;3.75;2.83;;;16.30;83.60;;;;;;5075096;28;20028;-69
2021/04/17 12:00:33;;;;;;;6.07;3.45;;;16.20;84.30;;;;;;5072078;28;20028;-68
2021/04/17 12:02:59;;;;;;;5.40;2.67;;;16.30;83.30;;;;;;5070067;28;20481;-68
2021/04/17 12:05:25;;;;;;;4.88;2.72;;;16.20;83.80;;;;;;5064745;28;20016;-69
2021/04/17 12:07:52;;;;;;;4.70;2.30;;;16.00;76.90;;;;;;5072691;28;20107;-69
2021/04/17 12:10:18;;;;;;;6.07;3.17;;;15.90;80.30;;;;;;5069887;28;20020;-69
2021/04/17 12:12:45;;;;;;;5.32;3.20;;;16.00;81.30;;;;;;5062089;28;20040;-68
2021/04/17 12:15:12;;;;;;;6.00;2.95;;;16.30;82.00;;;;;;5067193;28;20017;-68
2021/04/17 12:17:38;;;;;;;4.38;2.90;;;16.40;81.00;;;;;;5068875;28;20031;-69
2021/04/17 12:20:05;;;;;;;5.10;2.83;;;16.20;78.60;;;;;;5069240;28;20016;-69
2021/04/17 12:22:31;;;;;;;7.63;2.97;;;15.80;79.20;;;;;;5071074;28;20028;-69
2021/04/17 12:24:56;;;;;;;5.57;3.10;;;15.60;81.50;;;;;;5070742;28;20450;-69
2021/04/17 12:27:22;;;;;;;3.90;2.65;;;15.40;81.00;;;;;;5067207;28;20032;-69
2021/04/17 12:29:48;;;;;;;4.13;2.50;;;15.20;80.70;;;;;;5061813;28;20025;-69
2021/04/17 12:32:14;;;;;;;4.93;2.80;;;15.00;80.60;;;;;;5071663;28;20056;-69
2021/04/17 12:34:40;;;;;;;4.68;2.83;;;15.30;82.80;;;;;;5072480;28;20111;-69
2021/04/17 12:37:06;;;;;;;3.17;2.45;;;15.60;81.60;;;;;;5064630;28;20031;-69
2021/04/17 12:39:31;;;;;;;4.43;2.88;;;15.60;78.80;;;;;;5070872;28;20021;-69
2021/04/17 12:41:57;;;;;;;4.35;2.88;;;15.60;76.70;;;;;;5069998;28;20392;-69
2021/04/17 12:44:22;;;;;;;7.88;3.45;;;15.80;82.80;;;;;;5070291;28;20389;-69
2021/04/17 12:46:48;;;;;;;3.80;2.88;;;16.10;83.10;;;;;;5068552;28;20085;-67
2021/04/17 12:49:14;;;;;;;6.82;2.53;;;15.50;80.50;;;;;;5068672;28;20111;-68
2021/04/17 12:51:40;;;;;;;7.18;3.25;;;15.70;80.60;;;;;;5069238;28;20170;-68
2021/04/17 12:54:07;;;;;;;4.65;3.10;;;15.50;83.90;;;;;;5063935;28;20036;-68